createdAt,value
2024-01-17T00:00:40.141Z,987.5
2024-01-17T00:01:46.665Z,987.5
2024-01-17T00:02:48.082Z,987.5
2024-01-17T00:04:04.744Z,987.4
2024-01-17T00:05:27.189Z,987.4
2024-01-17T00:06:36.434Z,987.4
2024-01-17T00:07:40.198Z,987.4
2024-01-17T00:08:42.743Z,987.4
2024-01-17T00:09:49.172Z,987.4
2024-01-17T00:10:50.431Z,987.3
2024-01-17T00:11:54.592Z,987.3
2024-01-17T00:12:58.494Z,987.3
2024-01-17T00:14:12.580Z,987.3
2024-01-17T00:15:18.425Z,987.3
2024-01-17T00:16:37.180Z,987.2
2024-01-17T00:17:46.530Z,987.2
2024-01-17T00:18:57.977Z,987.2
2024-01-17T00:19:59.544Z,987.2
2024-01-17T00:21:06.175Z,987.1
2024-01-17T00:22:19.224Z,987.1
2024-01-17T00:23:24.858Z,987.1
2024-01-17T00:24:30.847Z,987.1
2024-01-17T00:25:41.101Z,987.1
2024-01-17T00:26:58.518Z,987.1
2024-01-17T00:28:09.715Z,987.1
2024-01-17T00:29:18.636Z,987
2024-01-17T00:30:27.205Z,987
2024-01-17T00:31:30.777Z,987
2024-01-17T00:32:43.372Z,987
2024-01-17T00:33:57.205Z,987
2024-01-17T00:35:01.295Z,987
2024-01-17T00:38:44.621Z,987
2024-01-17T00:39:50.369Z,987
2024-01-17T00:40:58.906Z,987
2024-01-17T00:42:12.005Z,986.9
2024-01-17T00:43:18.646Z,986.9
2024-01-17T00:44:30.488Z,986.9
2024-01-17T00:46:42.658Z,986.9
2024-01-17T00:48:06.434Z,986.9
2024-01-17T00:49:15.535Z,986.9
2024-01-17T00:50:27.012Z,986.9
2024-01-17T00:51:31.123Z,986.9
2024-01-17T00:52:45.119Z,986.9
2024-01-17T00:54:06.614Z,986.9
2024-01-17T00:55:13.413Z,986.9
2024-01-17T00:56:27.109Z,986.9
2024-01-17T00:57:36.147Z,986.9
2024-01-17T00:58:42.378Z,986.8
2024-01-17T00:59:48.939Z,986.8
2024-01-17T01:00:57.797Z,986.8
2024-01-17T01:02:27.396Z,986.8
2024-01-17T01:03:28.877Z,986.8
2024-01-17T01:05:51.371Z,986.9
2024-01-17T01:08:29.400Z,986.8
2024-01-17T01:09:59.482Z,986.8
2024-01-17T01:11:23.316Z,986.8
2024-01-17T01:12:40.963Z,986.7
2024-01-17T01:13:52.248Z,986.7
2024-01-17T01:15:21.164Z,986.7
2024-01-17T01:17:18.224Z,986.6
2024-01-17T01:18:34.476Z,986.6
2024-01-17T01:19:46.163Z,986.6
2024-01-17T01:21:19.568Z,986.6
2024-01-17T01:24:23.329Z,986.6
2024-01-17T01:25:48.438Z,986.6
2024-01-17T01:29:18.908Z,986.5
2024-01-17T01:32:24.129Z,986.4
2024-01-17T01:36:02.437Z,986.4
2024-01-17T01:39:31.831Z,986.4
2024-01-17T01:40:36.051Z,986.3
2024-01-17T01:42:06.729Z,986.3
2024-01-17T01:44:49.665Z,986.3
2024-01-17T01:45:50.909Z,986.3
2024-01-17T01:47:00.346Z,986.3
2024-01-17T01:48:08.739Z,986.3
2024-01-17T01:49:14.502Z,986.3
2024-01-17T01:51:39.990Z,986.2
2024-01-17T01:52:57.366Z,986.1
2024-01-17T01:54:05.980Z,986.1
2024-01-17T01:55:12.768Z,986.1
2024-01-17T01:56:25.908Z,986
2024-01-17T01:58:09.300Z,986
2024-01-17T01:59:28.664Z,986
2024-01-17T02:00:36.049Z,986
2024-01-17T02:01:52.086Z,986
2024-01-17T02:03:13.371Z,985.9
2024-01-17T02:04:22.689Z,985.9
2024-01-17T02:05:36.475Z,985.9
2024-01-17T02:06:41.103Z,985.8
2024-01-17T02:26:00.037Z,985.7
2024-01-17T02:27:29.415Z,985.6
2024-01-17T02:28:48.971Z,985.6
2024-01-17T03:07:37.078Z,984.7
2024-01-17T03:08:41.224Z,984.7
2024-01-17T03:09:49.782Z,984.7
2024-01-17T03:11:10.905Z,984.7
2024-01-17T03:13:01.125Z,984.7
2024-01-17T03:15:27.290Z,984.6
2024-01-17T03:17:04.850Z,984.6
2024-01-17T03:18:40.285Z,984.5
2024-01-17T03:20:35.531Z,984.5
2024-01-17T03:21:39.815Z,984.5
2024-01-17T03:23:15.578Z,984.5
2024-01-17T03:24:32.730Z,984.5
2024-01-17T03:29:14.091Z,984.5
2024-01-17T03:31:16.188Z,984.4
2024-01-17T03:32:34.256Z,984.4
2024-01-17T03:33:55.106Z,984.4
2024-01-17T03:36:28.482Z,984.3
2024-01-17T03:39:09.775Z,984.3
2024-01-17T03:40:25.714Z,984.3
2024-01-17T03:41:54.872Z,984.3
2024-01-17T03:43:07.132Z,984.3
2024-01-17T03:44:43.725Z,984.3
2024-01-17T03:46:03.923Z,984.3
2024-01-17T03:49:43.482Z,984.3
2024-01-17T03:50:52.187Z,984.3
2024-01-17T03:53:09.826Z,984.3
2024-01-17T03:54:37.096Z,984.3
2024-01-17T03:56:29.485Z,984.2
2024-01-17T03:59:20.854Z,984.2
2024-01-17T04:00:42.723Z,984.1
2024-01-17T04:01:49.984Z,984.1
2024-01-17T04:03:04.517Z,984
2024-01-17T04:05:04.462Z,984
2024-01-17T04:06:10.624Z,983.9
2024-01-17T04:07:24.183Z,983.9
2024-01-17T04:08:42.800Z,983.9
2024-01-17T04:11:23.299Z,983.8
2024-01-17T04:12:41.896Z,983.8
2024-01-17T04:13:45.986Z,983.7
2024-01-17T04:15:05.158Z,983.7
2024-01-17T04:16:39.159Z,983.7
2024-01-17T04:17:48.271Z,983.7
2024-01-17T04:19:48.914Z,983.6
2024-01-17T04:20:58.044Z,983.6
2024-01-17T04:22:16.652Z,983.6
2024-01-17T04:23:25.714Z,983.6
2024-01-17T04:26:02.107Z,983.6
2024-01-17T04:27:31.687Z,983.6
2024-01-17T04:40:31.001Z,983.6
2024-01-17T04:42:19.250Z,983.2
2024-01-17T04:43:25.929Z,983.2
2024-01-17T04:45:14.981Z,983.1
2024-01-17T04:46:35.575Z,983.1
2024-01-17T04:48:01.577Z,983
2024-01-17T04:49:06.403Z,983
2024-01-17T04:50:19.926Z,983
2024-01-17T04:52:46.537Z,983
2024-01-17T04:55:27.184Z,983
2024-01-17T04:57:33.647Z,982.9
2024-01-17T04:58:42.752Z,982.9
2024-01-17T04:59:49.030Z,982.9
2024-01-17T05:41:00.743Z,982.9
2024-01-17T05:42:11.608Z,982.3
2024-01-17T05:43:22.894Z,982.3
2024-01-17T05:45:20.170Z,982.2
2024-01-17T05:47:50.944Z,982.1
2024-01-17T05:49:20.844Z,982.1
2024-01-17T05:51:10.766Z,982.1
2024-01-17T05:52:14.319Z,982
2024-01-17T05:56:04.575Z,981.9
2024-01-17T05:57:11.159Z,981.9
2024-01-17T05:58:39.100Z,981.9
2024-01-17T05:59:50.419Z,981.8
2024-01-17T06:01:44.020Z,981.8
2024-01-17T06:02:48.663Z,981.7
2024-01-17T06:03:50.009Z,981.7
2024-01-17T06:04:51.250Z,981.7
2024-01-17T06:05:55.549Z,981.6
2024-01-17T06:06:56.937Z,981.6
2024-01-17T06:07:58.139Z,981.6
2024-01-17T06:08:59.420Z,981.6
2024-01-17T06:10:00.649Z,981.5
2024-01-17T06:11:01.795Z,981.5
2024-01-17T06:12:03.146Z,981.5
2024-01-17T06:13:04.662Z,981.5
2024-01-17T06:14:05.894Z,981.5
2024-01-17T06:15:07.194Z,981.4
2024-01-17T06:16:08.519Z,981.4
2024-01-17T06:17:09.686Z,981.4
2024-01-17T06:18:11.277Z,981.4
2024-01-17T06:19:12.492Z,981.4
2024-01-17T06:20:13.666Z,981.4
2024-01-17T06:21:14.902Z,981.4
2024-01-17T06:22:16.079Z,981.3
2024-01-17T06:23:17.242Z,981.3
2024-01-17T06:24:18.405Z,981.3
2024-01-17T06:25:19.574Z,981.2
2024-01-17T06:26:20.749Z,981.2
2024-01-17T06:27:22.072Z,981.2
2024-01-17T06:28:23.425Z,981.1
2024-01-17T06:29:24.696Z,981.1
2024-01-17T06:30:26.073Z,981.1
2024-01-17T06:31:27.567Z,981.1
2024-01-17T06:32:29.216Z,981.1
2024-01-17T06:33:30.883Z,981.1
2024-01-17T06:34:35.479Z,981.1
2024-01-17T06:35:39.411Z,981.1
2024-01-17T06:36:40.645Z,981.2
2024-01-17T06:37:41.841Z,981.2
2024-01-17T06:38:43.011Z,981.2
2024-01-17T06:39:44.170Z,981.1
2024-01-17T06:40:45.338Z,981.1
2024-01-17T06:41:46.552Z,981.1
2024-01-17T06:42:47.713Z,981.1
2024-01-17T06:43:48.903Z,981.1
2024-01-17T06:44:50.089Z,981.1
2024-01-17T06:45:51.349Z,981.1
2024-01-17T06:46:52.522Z,981.1
2024-01-17T06:47:53.895Z,981.1
2024-01-17T06:48:55.467Z,981.1
2024-01-17T06:49:56.858Z,981.1
2024-01-17T06:50:58.153Z,981.1
2024-01-17T06:51:59.296Z,981.1
2024-01-17T06:53:00.492Z,981
2024-01-17T06:54:01.781Z,981
2024-01-17T06:55:02.977Z,981
2024-01-17T06:56:04.136Z,981
2024-01-17T06:57:05.323Z,981
2024-01-17T06:58:06.619Z,981
2024-01-17T06:59:07.810Z,981
2024-01-17T07:00:09.086Z,981
2024-01-17T07:01:10.417Z,981
2024-01-17T07:02:11.676Z,981
2024-01-17T07:03:13.090Z,980.9
2024-01-17T07:04:14.590Z,980.9
2024-01-17T07:05:15.931Z,980.9
2024-01-17T07:06:17.461Z,980.9
2024-01-17T07:07:18.858Z,980.9
2024-01-17T07:08:20.162Z,980.9
2024-01-17T07:09:21.427Z,980.9
2024-01-17T07:10:22.699Z,980.9
2024-01-17T07:11:23.872Z,980.9
2024-01-17T07:12:25.101Z,980.9
2024-01-17T07:13:26.255Z,980.9
2024-01-17T07:14:27.587Z,980.9
2024-01-17T07:15:28.770Z,980.9
2024-01-17T07:16:29.976Z,980.9
2024-01-17T07:17:31.250Z,980.9
2024-01-17T07:18:33.139Z,980.9
2024-01-17T07:19:34.459Z,980.9
2024-01-17T07:20:35.742Z,980.9
2024-01-17T07:21:36.905Z,980.8
2024-01-17T07:22:38.061Z,980.8
2024-01-17T07:23:39.337Z,980.7
2024-01-17T07:24:40.578Z,980.7
2024-01-17T07:25:41.745Z,980.7
2024-01-17T07:26:42.938Z,980.7
2024-01-17T07:27:44.093Z,980.6
2024-01-17T07:28:45.284Z,980.7
2024-01-17T07:29:46.515Z,980.6
2024-01-17T07:30:47.786Z,980.6
2024-01-17T07:31:49.028Z,980.6
2024-01-17T07:32:50.754Z,980.5
2024-01-17T07:33:52.392Z,980.5
2024-01-17T07:34:54.041Z,980.4
2024-01-17T07:35:55.564Z,980.4
2024-01-17T07:36:56.803Z,980.4
2024-01-17T07:37:57.981Z,980.4
2024-01-17T07:38:59.207Z,980.4
2024-01-17T07:40:00.527Z,980.3
2024-01-17T07:41:01.699Z,980.3
2024-01-17T07:42:02.908Z,980.3
2024-01-17T07:43:04.093Z,980.3
2024-01-17T07:44:05.246Z,980.3
2024-01-17T07:45:06.529Z,980.2
2024-01-17T07:46:07.747Z,980.2
2024-01-17T07:47:08.913Z,980.2
2024-01-17T07:48:10.386Z,980.2
2024-01-17T07:49:12.039Z,980.1
2024-01-17T07:50:13.767Z,980.1
2024-01-17T07:51:15.127Z,980.1
2024-01-17T07:52:16.563Z,980
2024-01-17T07:53:17.728Z,980
2024-01-17T07:54:18.959Z,980
2024-01-17T07:55:20.295Z,980
2024-01-17T07:56:24.288Z,979.9
2024-01-17T07:57:25.575Z,979.9
2024-01-17T07:58:26.755Z,979.9
2024-01-17T07:59:27.928Z,979.9
2024-01-17T08:00:29.120Z,979.9
2024-01-17T08:01:30.393Z,979.9
2024-01-17T08:02:31.643Z,979.8
2024-01-17T08:03:33.068Z,979.8
2024-01-17T08:04:34.535Z,979.8
2024-01-17T08:05:36.101Z,979.8
2024-01-17T08:06:37.502Z,979.8
2024-01-17T08:07:38.845Z,979.7
2024-01-17T08:08:40.003Z,979.7
2024-01-17T08:09:41.164Z,979.7
2024-01-17T08:10:42.329Z,979.6
2024-01-17T08:11:43.517Z,979.6
2024-01-17T08:12:44.746Z,979.6
2024-01-17T08:13:45.904Z,979.6
2024-01-17T08:14:47.084Z,979.5
2024-01-17T08:15:48.271Z,979.5
2024-01-17T08:16:49.436Z,979.5
2024-01-17T08:17:51.001Z,979.5
2024-01-17T08:18:52.987Z,979.5
2024-01-17T08:19:54.348Z,979.5
2024-01-17T08:20:55.563Z,979.5
2024-01-17T08:21:56.747Z,979.4
2024-01-17T08:22:57.912Z,979.5
2024-01-17T08:23:59.098Z,979.5
2024-01-17T08:25:00.373Z,979.5
2024-01-17T08:26:01.542Z,979.5
2024-01-17T08:27:02.805Z,979.5
2024-01-17T08:28:03.957Z,979.5
2024-01-17T08:29:05.122Z,979.5
2024-01-17T08:30:06.471Z,979.4
2024-01-17T08:31:07.789Z,979.5
2024-01-17T08:32:08.999Z,979.4
2024-01-17T08:33:10.349Z,979.4
2024-01-17T08:34:12.091Z,979.4
2024-01-17T08:35:13.932Z,979.3
2024-01-17T08:36:15.643Z,979.3
2024-01-17T08:37:16.971Z,979.3
2024-01-17T08:38:18.151Z,979.3
2024-01-17T08:39:19.391Z,979.3
2024-01-17T08:40:20.566Z,979.2
2024-01-17T08:41:22.288Z,979.3
2024-01-17T08:42:23.448Z,979.3
2024-01-17T08:43:24.618Z,979.3
2024-01-17T08:44:25.782Z,979.2
2024-01-17T08:45:26.959Z,979.2
2024-01-17T08:46:28.157Z,979.2
2024-01-17T08:47:29.595Z,979.2
2024-01-17T08:48:31.194Z,979.2
2024-01-17T08:49:32.507Z,979.2
2024-01-17T08:50:33.850Z,979.1
2024-01-17T08:51:35.084Z,979.1
2024-01-17T08:52:36.251Z,979.1
2024-01-17T08:53:37.447Z,979
2024-01-17T08:54:38.619Z,979
2024-01-17T08:55:41.894Z,979
2024-01-17T08:56:47.197Z,979
2024-01-17T08:57:48.408Z,979
2024-01-17T08:58:49.584Z,979
2024-01-17T08:59:50.759Z,978.9
2024-01-17T09:00:51.971Z,978.9
2024-01-17T09:01:53.185Z,978.9
2024-01-17T09:02:54.500Z,978.8
2024-01-17T09:03:55.689Z,978.8
2024-01-17T09:04:56.895Z,978.8
2024-01-17T09:05:58.219Z,978.8
2024-01-17T09:06:59.755Z,978.8
2024-01-17T09:08:01.812Z,978.7
2024-01-17T09:09:03.190Z,978.7
2024-01-17T09:10:04.451Z,978.7
2024-01-17T09:11:05.613Z,978.7
2024-01-17T09:12:06.850Z,978.7
2024-01-17T09:13:10.775Z,978.7
2024-01-17T09:14:11.944Z,978.6
2024-01-17T09:15:13.533Z,978.6
2024-01-17T09:16:14.992Z,978.6
2024-01-17T09:17:16.364Z,978.6
2024-01-17T09:18:17.665Z,978.6
2024-01-17T09:19:19.297Z,978.6
2024-01-17T09:20:20.681Z,978.6
2024-01-17T09:21:21.856Z,978.6
2024-01-17T09:22:23.093Z,978.6
2024-01-17T09:23:24.252Z,978.6
2024-01-17T09:24:25.622Z,978.5
2024-01-17T09:25:26.776Z,978.5
2024-01-17T09:26:27.960Z,978.5
2024-01-17T09:27:29.101Z,978.5
2024-01-17T09:28:30.264Z,978.4
2024-01-17T09:29:31.571Z,978.4
2024-01-17T09:30:32.872Z,978.4
2024-01-17T09:31:34.068Z,978.3
2024-01-17T09:32:35.518Z,978.3
2024-01-17T09:33:37.209Z,978.3
2024-01-17T09:34:39.126Z,978.2
2024-01-17T09:35:58.160Z,978.2
2024-01-17T09:37:04.514Z,978.2
2024-01-17T09:38:06.473Z,978.2
2024-01-17T09:39:07.686Z,978.2
2024-01-17T09:40:08.913Z,978.2
2024-01-17T09:41:10.086Z,978.1
2024-01-17T09:42:11.281Z,978.1
2024-01-17T09:43:14.634Z,978.1
2024-01-17T09:44:19.692Z,978.1
2024-01-17T09:45:20.955Z,978.1
2024-01-17T09:46:22.143Z,978.2
2024-01-17T09:47:23.300Z,978.2
2024-01-17T09:48:24.715Z,978.2
2024-01-17T09:49:26.274Z,978.1
2024-01-17T09:50:27.471Z,978.1
2024-01-17T09:51:28.638Z,978.1
2024-01-17T09:52:29.823Z,978
2024-01-17T09:53:31.140Z,978
2024-01-17T09:54:32.372Z,978
2024-01-17T09:55:33.590Z,977.9
2024-01-17T09:56:35.191Z,977.9
2024-01-17T09:57:36.528Z,977.9
2024-01-17T09:58:37.679Z,977.9
2024-01-17T09:59:38.889Z,977.9
2024-01-17T10:00:40.118Z,977.9
2024-01-17T10:01:41.343Z,977.9
2024-01-17T10:02:42.646Z,977.9
2024-01-17T10:03:43.975Z,977.8
2024-01-17T10:04:45.320Z,977.8
2024-01-17T10:05:46.550Z,977.8
2024-01-17T10:06:47.929Z,977.7
2024-01-17T10:07:49.259Z,977.7
2024-01-17T10:08:50.693Z,977.7
2024-01-17T10:09:51.842Z,977.7
2024-01-17T10:10:53.033Z,977.7
2024-01-17T10:11:55.893Z,977.7
2024-01-17T10:12:57.075Z,977.7
2024-01-17T10:13:58.224Z,977.6
2024-01-17T10:14:59.487Z,977.6
2024-01-17T10:16:01.061Z,977.5
2024-01-17T10:17:02.223Z,977.5
2024-01-17T10:18:03.602Z,977.5
2024-01-17T10:19:05.248Z,977.5
2024-01-17T10:20:06.870Z,977.5
2024-01-17T10:21:08.236Z,977.5
2024-01-17T10:22:09.560Z,977.5
2024-01-17T10:23:10.726Z,977.5
2024-01-17T10:24:11.930Z,977.5
2024-01-17T10:25:13.191Z,977.4
2024-01-17T10:26:14.482Z,977.4
2024-01-17T10:27:15.815Z,977.4
2024-01-17T10:28:17.045Z,977.4
2024-01-17T10:29:18.215Z,977.4
2024-01-17T10:30:19.546Z,977.4
2024-01-17T10:31:20.879Z,977.3
2024-01-17T10:32:22.048Z,977.3
2024-01-17T10:33:23.400Z,977.3
2024-01-17T10:34:25.000Z,977.3
2024-01-17T10:35:26.608Z,977.2
2024-01-17T10:36:27.814Z,977.2
2024-01-17T10:37:29.027Z,977.1
2024-01-17T10:38:30.283Z,977.1
2024-01-17T10:39:31.478Z,977.1
2024-01-17T10:40:32.642Z,977
2024-01-17T10:41:33.847Z,977
2024-01-17T10:42:35.061Z,977
2024-01-17T10:43:36.222Z,976.9
2024-01-17T10:44:37.407Z,976.9
2024-01-17T10:45:38.552Z,976.9
2024-01-17T10:46:39.778Z,976.9
2024-01-17T10:47:41.131Z,976.9
2024-01-17T10:48:42.781Z,976.9
2024-01-17T10:49:44.150Z,976.8
2024-01-17T10:50:45.375Z,976.8
2024-01-17T10:51:46.562Z,976.9
2024-01-17T10:52:47.741Z,976.8
2024-01-17T10:53:56.387Z,976.8
2024-01-17T10:54:58.324Z,976.7
2024-01-17T10:55:59.504Z,976.7
2024-01-17T10:57:00.817Z,976.7
2024-01-17T10:58:02.009Z,976.6
2024-01-17T10:59:03.176Z,976.6
2024-01-17T11:00:04.516Z,976.6
2024-01-17T11:01:06.069Z,976.6
2024-01-17T11:02:07.227Z,976.6
2024-01-17T11:03:08.557Z,976.6
2024-01-17T11:04:09.836Z,976.6
2024-01-17T11:05:11.054Z,976.6
2024-01-17T11:06:12.524Z,976.6
2024-01-17T11:07:13.929Z,976.6
2024-01-17T11:08:15.058Z,976.5
2024-01-17T11:09:16.403Z,976.5
2024-01-17T11:10:17.605Z,976.5
2024-01-17T11:11:18.818Z,976.5
2024-01-17T11:12:20.040Z,976.4
2024-01-17T11:13:21.275Z,976.4
2024-01-17T11:14:22.452Z,976.4
2024-01-17T11:15:23.919Z,976.4
2024-01-17T11:16:25.318Z,976.3
2024-01-17T11:17:36.457Z,976.3
2024-01-17T11:18:38.206Z,976.3
2024-01-17T11:19:39.704Z,976.3
2024-01-17T11:20:41.080Z,976.3
2024-01-17T11:21:42.324Z,976.3
2024-01-17T11:22:43.499Z,976.2
2024-01-17T11:23:44.755Z,976.2
2024-01-17T11:24:45.924Z,976.2
2024-01-17T11:25:47.099Z,976.1
2024-01-17T11:26:48.318Z,976.1
2024-01-17T11:27:49.468Z,976.1
2024-01-17T11:28:50.630Z,976.1
2024-01-17T11:29:51.825Z,976.1
2024-01-17T11:30:52.982Z,976
2024-01-17T11:31:56.135Z,976
2024-01-17T11:32:57.638Z,976
2024-01-17T11:33:59.137Z,976
2024-01-17T11:35:00.570Z,976
2024-01-17T11:36:02.060Z,976
2024-01-17T11:37:03.459Z,976
2024-01-17T11:38:04.628Z,976
2024-01-17T11:39:05.820Z,975.9
2024-01-17T11:40:06.996Z,975.9
2024-01-17T11:41:08.353Z,975.9
2024-01-17T11:42:09.652Z,975.8
2024-01-17T11:43:11.344Z,975.8
2024-01-17T11:44:12.709Z,975.8
2024-01-17T11:45:15.645Z,975.8
2024-01-17T11:46:16.913Z,975.8
2024-01-17T11:47:18.069Z,975.8
2024-01-17T11:48:19.722Z,975.7
2024-01-17T11:49:21.778Z,975.7
2024-01-17T11:50:24.995Z,975.7
2024-01-17T11:51:26.372Z,975.7
2024-01-17T11:52:27.637Z,975.6
2024-01-17T11:53:28.791Z,975.6
2024-01-17T11:54:30.071Z,975.6
2024-01-17T11:55:31.216Z,975.6
2024-01-17T11:56:32.552Z,975.6
2024-01-17T11:57:33.795Z,975.6
2024-01-17T11:58:34.974Z,975.5
2024-01-17T11:59:36.212Z,975.5
2024-01-17T12:00:37.425Z,975.5
2024-01-17T12:01:38.583Z,975.4
2024-01-17T12:02:40.418Z,975.4
2024-01-17T12:03:41.745Z,975.4
2024-01-17T12:04:42.934Z,975.4
2024-01-17T12:05:44.196Z,975.4
2024-01-17T12:06:45.622Z,975.4
2024-01-17T12:07:47.057Z,975.4
2024-01-17T12:08:48.407Z,975.4
2024-01-17T12:09:49.587Z,975.4
2024-01-17T12:10:50.746Z,975.4
2024-01-17T12:11:52.151Z,975.4
2024-01-17T12:12:53.540Z,975.3
2024-01-17T12:13:55.225Z,975.3
2024-01-17T12:14:56.445Z,975.2
2024-01-17T12:15:57.591Z,975.3
2024-01-17T12:16:58.767Z,975.2
2024-01-17T12:18:00.262Z,975.2
2024-01-17T12:19:02.478Z,975.2
2024-01-17T12:20:04.011Z,975.2
2024-01-17T12:21:05.805Z,975.2
2024-01-17T12:22:07.411Z,975.1
2024-01-17T12:23:08.581Z,975.1
2024-01-17T12:24:09.931Z,975.1
2024-01-17T12:25:11.120Z,975.1
2024-01-17T12:26:12.284Z,975.1
2024-01-17T12:27:13.567Z,975.1
2024-01-17T12:28:14.950Z,975.1
2024-01-17T12:29:16.599Z,975.1
2024-01-17T12:30:17.857Z,975
2024-01-17T12:31:19.066Z,975
2024-01-17T12:32:20.240Z,974.9
2024-01-17T12:33:26.352Z,974.9
2024-01-17T12:34:27.994Z,974.9
2024-01-17T12:35:29.185Z,974.9
2024-01-17T12:36:30.348Z,974.9
2024-01-17T12:37:31.535Z,974.9
2024-01-17T12:38:32.683Z,974.8
2024-01-17T12:39:33.927Z,974.8
2024-01-17T12:40:35.090Z,974.8
2024-01-17T12:41:36.293Z,974.7
2024-01-17T12:42:37.557Z,974.7
2024-01-17T12:43:38.765Z,974.6
2024-01-17T12:44:39.929Z,974.6
2024-01-17T12:45:41.200Z,974.5
2024-01-17T12:46:42.367Z,974.5
2024-01-17T12:47:43.792Z,974.5
2024-01-17T12:48:45.190Z,974.4
2024-01-17T12:49:46.606Z,974.4
2024-01-17T12:50:47.921Z,974.4
2024-01-17T12:51:49.107Z,974.4
2024-01-17T12:52:50.328Z,974.4
2024-01-17T12:53:51.535Z,974.4
2024-01-17T12:54:52.731Z,974.4
2024-01-17T12:55:53.897Z,974.4
2024-01-17T12:56:55.188Z,974.4
2024-01-17T12:57:56.509Z,974.3
2024-01-17T12:58:57.671Z,974.4
2024-01-17T12:59:58.988Z,974.3
2024-01-17T13:01:00.683Z,974.3
2024-01-17T13:02:02.347Z,974.4
2024-01-17T13:03:03.602Z,974.3
2024-01-17T13:04:04.982Z,974.3
2024-01-17T13:05:06.204Z,974.3
2024-01-17T13:06:08.005Z,974.3
2024-01-17T13:07:13.856Z,974.2
2024-01-17T13:08:18.472Z,974.2
2024-01-17T13:09:19.733Z,974.2
2024-01-17T13:10:21.309Z,974.2
2024-01-17T13:11:24.735Z,974.2
2024-01-17T13:12:31.224Z,974.2
2024-01-17T13:13:32.492Z,974.2
2024-01-17T13:14:35.857Z,974.1
2024-01-17T13:15:41.845Z,974.1
2024-01-17T13:16:46.371Z,974.1
2024-01-17T13:17:50.907Z,974.1
2024-01-17T13:18:58.855Z,974.1
2024-01-17T13:20:05.393Z,974.1
2024-01-17T13:21:09.248Z,974.1
2024-01-17T13:22:22.041Z,974.1
2024-01-17T13:23:29.022Z,974.1
2024-01-17T13:24:30.238Z,974.1
2024-01-17T13:25:34.062Z,974
2024-01-17T13:26:58.653Z,974
2024-01-17T13:28:03.221Z,974
2024-01-17T13:29:17.582Z,974
2024-01-17T13:30:24.765Z,973.9
2024-01-17T13:31:26.050Z,973.9
2024-01-17T13:32:38.468Z,973.9
2024-01-17T13:33:40.007Z,973.9
2024-01-17T13:34:44.282Z,973.9
2024-01-17T13:35:45.819Z,973.9
2024-01-17T13:36:46.996Z,973.9
2024-01-17T13:37:50.457Z,973.9
2024-01-17T13:38:54.008Z,973.8
2024-01-17T13:39:57.737Z,973.8
2024-01-17T13:41:00.365Z,973.8
2024-01-17T13:42:09.331Z,973.8
2024-01-17T13:43:10.466Z,973.8
2024-01-17T13:44:11.639Z,973.7
2024-01-17T13:45:12.967Z,973.7
2024-01-17T13:46:17.440Z,973.7
2024-01-17T13:47:18.616Z,973.7
2024-01-17T13:48:20.058Z,973.7
2024-01-17T13:49:24.646Z,973.7
2024-01-17T13:50:26.021Z,973.7
2024-01-17T13:51:27.271Z,973.7
2024-01-17T13:52:28.634Z,973.6
2024-01-17T13:53:30.278Z,973.7
2024-01-17T13:54:31.705Z,973.6
2024-01-17T13:55:32.848Z,973.6
2024-01-17T13:56:34.006Z,973.6
2024-01-17T13:57:35.185Z,973.6
2024-01-17T13:58:36.343Z,973.6
2024-01-17T13:59:37.644Z,973.6
2024-01-17T14:00:38.866Z,973.6
2024-01-17T14:01:40.226Z,973.6
2024-01-17T14:02:41.465Z,973.5
2024-01-17T14:03:42.844Z,973.6
2024-01-17T14:04:44.119Z,973.6
2024-01-17T14:05:45.345Z,973.6
2024-01-17T14:06:46.694Z,973.5
2024-01-17T14:07:48.389Z,973.5
2024-01-17T14:08:49.577Z,973.5
2024-01-17T14:09:50.779Z,973.4
2024-01-17T14:10:51.952Z,973.4
2024-01-17T14:11:56.267Z,973.4
2024-01-17T14:12:57.455Z,973.4
2024-01-17T14:13:58.660Z,973.4
2024-01-17T14:14:59.976Z,973.4
2024-01-17T14:16:01.476Z,973.3
2024-01-17T14:17:02.660Z,973.3
2024-01-17T14:18:03.991Z,973.3
2024-01-17T14:19:05.459Z,973.3
2024-01-17T14:20:06.890Z,973.3
2024-01-17T14:21:08.208Z,973.3
2024-01-17T14:22:09.410Z,973.3
2024-01-17T14:23:10.592Z,973.2
2024-01-17T14:24:11.842Z,973.2
2024-01-17T14:25:13.141Z,973.2
2024-01-17T14:26:14.417Z,973.2
2024-01-17T14:27:15.639Z,973.2
2024-01-17T14:28:16.812Z,973.2
2024-01-17T14:29:17.985Z,973.2
2024-01-17T14:30:19.304Z,973.1
2024-01-17T14:31:20.888Z,973.1
2024-01-17T14:32:22.064Z,973.1
2024-01-17T14:33:23.369Z,973.1
2024-01-17T14:34:24.706Z,973.1
2024-01-17T14:35:25.931Z,973
2024-01-17T14:36:27.216Z,973
2024-01-17T14:37:28.582Z,973
2024-01-17T14:38:29.760Z,973
2024-01-17T14:39:30.916Z,973
2024-01-17T14:40:32.133Z,973
2024-01-17T14:41:33.291Z,973
2024-01-17T14:42:34.440Z,972.9
2024-01-17T14:43:35.598Z,972.9
2024-01-17T14:44:36.968Z,972.9
2024-01-17T14:45:38.720Z,972.9
2024-01-17T14:46:39.884Z,972.9
2024-01-17T14:47:43.377Z,972.8
2024-01-17T14:48:45.050Z,972.8
2024-01-17T14:49:46.642Z,972.8
2024-01-17T14:50:48.019Z,972.8
2024-01-17T14:51:49.210Z,972.8
2024-01-17T14:52:50.362Z,972.8
2024-01-17T14:53:51.572Z,972.8
2024-01-17T14:54:52.728Z,972.8
2024-01-17T14:55:53.934Z,972.8
2024-01-17T14:56:55.142Z,972.8
2024-01-17T14:57:56.284Z,972.7
2024-01-17T14:58:57.451Z,972.7
2024-01-17T14:59:58.643Z,972.7
2024-01-17T15:01:00.169Z,972.7
2024-01-17T15:02:01.477Z,972.7
2024-01-17T15:03:02.752Z,972.6
2024-01-17T15:04:03.973Z,972.6
2024-01-17T15:05:09.795Z,972.7
2024-01-17T15:06:12.555Z,972.7
2024-01-17T15:07:14.239Z,972.7
2024-01-17T15:08:15.624Z,972.7
2024-01-17T15:09:16.866Z,972.7
2024-01-17T15:10:18.048Z,972.6
2024-01-17T15:11:19.236Z,972.6
2024-01-17T15:12:20.547Z,972.6
2024-01-17T15:13:21.761Z,972.6
2024-01-17T15:14:22.939Z,972.6
2024-01-17T15:15:24.171Z,972.6
2024-01-17T15:16:25.499Z,972.7
2024-01-17T15:17:26.879Z,972.7
2024-01-17T15:18:28.235Z,972.7
2024-01-17T15:19:29.846Z,972.6
2024-01-17T15:20:31.062Z,972.6
2024-01-17T15:21:32.224Z,972.6
2024-01-17T15:22:35.820Z,972.6
2024-01-17T15:23:37.069Z,972.5
2024-01-17T15:24:38.297Z,972.5
2024-01-17T15:25:39.461Z,972.5
2024-01-17T15:26:40.692Z,972.5
2024-01-17T15:27:41.893Z,972.5
2024-01-17T15:28:43.043Z,972.5
2024-01-17T15:29:44.655Z,972.5
2024-01-17T15:30:45.981Z,972.5
2024-01-17T15:31:47.444Z,972.5
2024-01-17T15:32:48.941Z,972.5
2024-01-17T15:33:50.389Z,972.5
2024-01-17T15:34:51.931Z,972.5
2024-01-17T15:35:53.118Z,972.5
2024-01-17T15:36:54.286Z,972.5
2024-01-17T15:37:55.455Z,972.5
2024-01-17T15:38:56.762Z,972.5
2024-01-17T15:39:58.141Z,972.5
2024-01-17T15:40:59.303Z,972.5
2024-01-17T15:42:00.591Z,972.4
2024-01-17T15:43:01.764Z,972.4
2024-01-17T15:44:02.920Z,972.4
2024-01-17T15:45:04.129Z,972.4
2024-01-17T15:46:05.324Z,972.4
2024-01-17T15:47:06.481Z,972.4
2024-01-17T15:48:08.013Z,972.4
2024-01-17T15:49:09.793Z,972.4
2024-01-17T15:50:11.211Z,972.4
2024-01-17T15:51:12.397Z,972.4
2024-01-17T15:52:13.624Z,972.4
2024-01-17T15:53:14.792Z,972.4
2024-01-17T15:54:16.020Z,972.4
2024-01-17T15:55:17.234Z,972.3
2024-01-17T15:56:18.396Z,972.3
2024-01-17T15:57:19.637Z,972.3
2024-01-17T15:58:20.849Z,972.3
2024-01-17T15:59:22.009Z,972.3
2024-01-17T16:00:23.208Z,972.3
2024-01-17T16:01:24.475Z,972.3
2024-01-17T16:02:25.660Z,972.3
2024-01-17T16:03:27.009Z,972.3
2024-01-17T16:04:28.249Z,972.3
2024-01-17T16:05:29.444Z,972.3
2024-01-17T16:06:30.915Z,972.3
2024-01-17T16:07:32.340Z,972.3
2024-01-17T16:08:33.580Z,972.4
2024-01-17T16:09:34.803Z,972.4
2024-01-17T16:10:36.008Z,972.4
2024-01-17T16:11:37.167Z,972.4
2024-01-17T16:12:38.374Z,972.4
2024-01-17T16:13:39.733Z,972.4
2024-01-17T16:14:40.920Z,972.4
2024-01-17T16:15:42.135Z,972.4
2024-01-17T16:16:43.337Z,972.4
2024-01-17T16:17:44.682Z,972.3
2024-01-17T16:18:46.312Z,972.3
2024-01-17T16:19:47.872Z,972.3
2024-01-17T16:20:49.130Z,972.3
2024-01-17T16:21:50.274Z,972.3
2024-01-17T16:22:51.446Z,972.3
2024-01-17T16:23:52.663Z,972.3
2024-01-17T16:24:53.836Z,972.3
2024-01-17T16:25:55.053Z,972.3
2024-01-17T16:26:56.284Z,972.3
2024-01-17T16:27:57.490Z,972.3
2024-01-17T16:28:58.657Z,972.4
2024-01-17T16:29:59.842Z,972.3
2024-01-17T16:31:01.255Z,972.3